Etusivu
METAR-TAF:

METAR-TAF

Lentoasemat :

El Borma, Tunisia

Leveyspiiri: 31-41N, Pituuspiiri: 009-10E, korkeus merenpinnasta: 258 m

Tämänhetkinen sää

Tämä raportti tehtiin 7 tuntia ja 17 minuuttia sitten, kello 16.00 UTC
Tuuli 9 kn lännestä/luoteesta
Lämpötila 19°C
Kosteus 43%
Ilmanpaine 1020 hPa
Näkyvyys 10 km tai enemmän
ei pilviä alle 1500 m:ssä eikä cumulonimbus-pilviä

METAR: DTTR 091600Z 30009KT CAVOK 19/06 Q1020

Aika: 00:17 (23:17 UTC)

Sääennuste

Tämä raportti tehtiin 11 tuntia ja 17 minuuttia sitten, kello 12.00 UTC
Ennuste voimassa 09. päivästä klo 13 UTC - 09. päivään klo 22 UTC
Tuuli 11 kn pohjoisesta
Näkyvyys 10 km tai enemmän
ei pilviä alle 1500 m:ssä eikä cumulonimbus-pilviä

TAF: DTTR 091200Z 0913/0922 35011KT CAVOK

Säähavainnot ja -ennusteet yli 4000 lentoasemalta (METAR- ja TAF-raportit).

Käytössä olevat sääasemat on merkitty karttaan keltaisilla ja punaisilla pisteillä.

Aseta hiiri pisteen päälle nähdäksesi sääaseman nimen.

Klikkaa sitten nähdäksesi säähavainnot ja -ennusteet.

Kartan vaihtaminen: klikkaa mustalla rastilla varustettuja vihreitä pisteitä, niin voit zoomata sisään; viivalla varustettua vihreää pistettä, niin voit zoomata ulos tai vihreitä nuolia, niin pääset viereisille kartoille.


METAR-TAF: